Agia Marina — SX5375 — position and weather

sailwx.info

Track history (hours):
 
Tides and Currents Weather Stations Pressure Air Temp Water Temp Dewpoint Dewpoint Depression Visibility Wind Speed Wind Dir Waves Ship Positions

Agia Marina

Last reported at 2015-Apr-01 12:30 UTC. Time now 2015-Apr-01 22:38 UTC.
Position N 37°22' E 024°59'.

Length 59 m; draft 2.5 m.

Type: Cargo ship. MMSI: 237042500.

Date/timePositionNaut miles runAvg speedWind from/ knotsBaromVisibWave heightAir tempDewpointWater temp
2015-Apr-01 12:30N 37°22' E 024°59'5 5.2
2015-Apr-01 11:33N 37°17' E 025°01'6 5.9
2015-Apr-01 10:33N 37°12' E 025°04'7 0.5
2015-Mar-31 20:23N 37°09' E 025°12'5 5.9
2015-Mar-31 19:34N 37°10' E 025°18'5 4.8
2015-Mar-31 18:34N 37°06' E 025°22'0 0.0
2015-Mar-31 17:33N 37°06' E 025°22'4 4.4
2015-Mar-31 16:33N 37°02' E 025°20'14 5.8
2015-Mar-31 14:09N 36°51' E 025°30'4 6.0
2015-Mar-31 13:28N 36°48' E 025°34'5 5.6
2015-Mar-31 12:31N 36°44' E 025°39'5 5.4
2015-Mar-31 11:33N 36°42' E 025°45'5 5.4
2015-Mar-31 10:33N 36°39' E 025°50'6 5.9
2015-Mar-31 09:32N 36°36' E 025°57'8 6.3
2015-Mar-31 08:14N 36°32' E 026°06'5 6.1
2015-Mar-31 07:23N 36°30' E 026°12'7 6.1
2015-Mar-31 06:20N 36°30' E 026°20'28 3.6
2015-Mar-30 22:33N 36°03' E 026°28'  
2015-Mar-23 23:20N 37°14' E 025°30'5 6.2
2015-Mar-23 22:33N 37°11' E 025°26'7 6.8
2015-Mar-23 21:34N 37°06' E 025°19'7 7.2
2015-Mar-23 20:33N 36°59' E 025°16'  
Track history (hours):
 
Tides and Currents Weather Stations Pressure Air Temp Water Temp Dewpoint Dewpoint Depression Visibility Wind Speed Wind Dir Waves Ship Positions

Agia Marina

Last reported at 2015-Apr-01 12:30 UTC. Time now 2015-Apr-01 22:38 UTC.
Position N 37°22' E 024°59'.

Length 59 m; draft 2.5 m.

Type: Cargo ship. MMSI: 237042500.

Date/timePositionNaut miles runAvg speedWind from/ knotsBaromVisibWave heightAir tempDewpointWater temp
2015-Apr-01 12:30N 37°22' E 024°59'5 5.2
2015-Apr-01 11:33N 37°17' E 025°01'6 5.9
2015-Apr-01 10:33N 37°12' E 025°04'7 0.5
2015-Mar-31 20:23N 37°09' E 025°12'5 5.9
2015-Mar-31 19:34N 37°10' E 025°18'5 4.8
2015-Mar-31 18:34N 37°06' E 025°22'0 0.0
2015-Mar-31 17:33N 37°06' E 025°22'4 4.4
2015-Mar-31 16:33N 37°02' E 025°20'14 5.8
2015-Mar-31 14:09N 36°51' E 025°30'4 6.0
2015-Mar-31 13:28N 36°48' E 025°34'5 5.6
2015-Mar-31 12:31N 36°44' E 025°39'5 5.4
2015-Mar-31 11:33N 36°42' E 025°45'5 5.4
2015-Mar-31 10:33N 36°39' E 025°50'6 5.9
2015-Mar-31 09:32N 36°36' E 025°57'8 6.3
2015-Mar-31 08:14N 36°32' E 026°06'5 6.1
2015-Mar-31 07:23N 36°30' E 026°12'7 6.1
2015-Mar-31 06:20N 36°30' E 026°20'28 3.6
2015-Mar-30 22:33N 36°03' E 026°28'  
2015-Mar-23 23:20N 37°14' E 025°30'5 6.2
2015-Mar-23 22:33N 37°11' E 025°26'7 6.8
2015-Mar-23 21:34N 37°06' E 025°19'7 7.2
2015-Mar-23 20:33N 36°59' E 025°16'  

Dump ship's entire track history